Arvada, CO (80002)

6:39 AM MST on December 20, 2014 (GMT -0700)
APRSWXNET Arvada CO US | Change Station
CLOSE
Current Station
Personal Weather Station
Location: Arvada, CO
Elevation: 5399 ft
Nearby Weather Stations

Elev 5399 ft 39.81 °N, 105.11 °W | Updated 36 minutes ago

Mostly Cloudy
Mostly Cloudy
25 °F
Feels Like 25 °F
N
0
Wind Variable Wind from West
Gusts 0.0 mph

Today
High -- | Low -- °F
--% Chance of Precip.
Yesterday
High -- | Low -- °F
Precip. -- in
7:17 AM 4:38 PM
Waning Crescent, 3% visible
Pressure 29.98 in
Visibility 30.0 miles
Clouds Scattered Clouds 10000 ft
Overcast 20000 ft
Windchill 25 °F
Dew Point 19 °F
Humidity 76%
Rainfall -999.00 in
Snow Depth Not available.
UV 0 out of 12
Pollen .10 out of 12
Air Quality Not available.
Flu Activity Not available.
METAR KBJC 201245Z 00000KT 30SM SCT100 OVC200 M02/M08 A2998

More Conditions Fewer Conditions

Pressure 29.98 in
Visibility 30.0 miles
Clouds Scattered Clouds 10000 ft
Overcast 20000 ft
Windchill 25 °F
Dew Point 19 °F
Humidity 76%
Rainfall -999.00 in
Snow Depth Not available.
UV 0 out of 12
Pollen .10 out of 12
Air Quality Not available.
Flu Activity Not available.
METAR KBJC 201245Z 00000KT 30SM SCT100 OVC200 M02/M08 A2998

More Conditions Fewer Conditions

10-Day Weather Forecast

Almanac

Astronomy

Dec. 20, 2014 Rise Set
Actual Time
Civil Twilight
Nautical Twilight
Astronomical Twilight
Moon
Length of Visible Light
Length of Day
Tomorrow will be .
, % of the Moon is Illuminated

Today's Extremes

State Highs State Lows

Community

WunderPhotos

Upload Photos

1,779,170 photos uploaded!

WunderBlogs® & News

Nearby

Air Quality

  Air Quality AQ Index Pollutant
Not available.

Snow Depth

Station Depth Elevation

Earthquake Activity

City Distance Mag. Time & Date
Minimum magnitude displayed is 2.5.

Coastal Water Temperatures

Place Temperature

Nearby Weather Stations